sensor_id;sensor_type;location;lat;lon;timestamp;P1;durP1;ratioP1;P2;durP2;ratioP2
16824;SDS011;8529;48.108;-1.706;2023-04-25T00:01:56;10.68;;;4.47;;
16824;SDS011;8529;48.108;-1.706;2023-04-25T00:04:22;8.65;;;3.60;;
16824;SDS011;8529;48.108;-1.706;2023-04-25T00:06:50;7.07;;;3.33;;
16824;SDS011;8529;48.108;-1.706;2023-04-25T00:09:19;8.55;;;4.10;;
16824;SDS011;8529;48.108;-1.706;2023-04-25T00:11:46;7.40;;;3.28;;
16824;SDS011;8529;48.108;-1.706;2023-04-25T00:14:13;8.88;;;3.92;;
16824;SDS011;8529;48.108;-1.706;2023-04-25T00:16:41;7.63;;;3.33;;
16824;SDS011;8529;48.108;-1.706;2023-04-25T00:19:09;10.75;;;4.50;;
16824;SDS011;8529;48.108;-1.706;2023-04-25T00:21:36;9.13;;;3.65;;
16824;SDS011;8529;48.108;-1.706;2023-04-25T00:24:05;9.50;;;3.60;;
16824;SDS011;8529;48.108;-1.706;2023-04-25T00:26:34;11.23;;;3.83;;
16824;SDS011;8529;48.108;-1.706;2023-04-25T00:29:01;8.18;;;3.75;;
16824;SDS011;8529;48.108;-1.706;2023-04-25T00:31:29;6.93;;;3.72;;
16824;SDS011;8529;48.108;-1.706;2023-04-25T00:33:56;9.65;;;3.40;;
16824;SDS011;8529;48.108;-1.706;2023-04-25T00:36:23;8.80;;;3.90;;
16824;SDS011;8529;48.108;-1.706;2023-04-25T00:38:50;7.50;;;3.55;;
16824;SDS011;8529;48.108;-1.706;2023-04-25T00:41:19;6.30;;;3.28;;
16824;SDS011;8529;48.108;-1.706;2023-04-25T00:43:48;8.40;;;3.70;;
16824;SDS011;8529;48.108;-1.706;2023-04-25T00:46:16;9.40;;;4.18;;
16824;SDS011;8529;48.108;-1.706;2023-04-25T00:48:42;10.27;;;3.95;;
16824;SDS011;8529;48.108;-1.706;2023-04-25T00:51:09;6.85;;;3.28;;
16824;SDS011;8529;48.108;-1.706;2023-04-25T00:53:42;8.50;;;3.60;;
16824;SDS011;8529;48.108;-1.706;2023-04-25T00:56:11;7.18;;;3.28;;
16824;SDS011;8529;48.108;-1.706;2023-04-25T00:58:38;9.10;;;3.42;;
16824;SDS011;8529;48.108;-1.706;2023-04-25T01:01:08;5.75;;;3.45;;
16824;SDS011;8529;48.108;-1.706;2023-04-25T01:03:37;7.70;;;3.65;;
16824;SDS011;8529;48.108;-1.706;2023-04-25T01:06:06;7.30;;;3.42;;
16824;SDS011;8529;48.108;-1.706;2023-04-25T01:08:36;8.88;;;3.50;;
16824;SDS011;8529;48.108;-1.706;2023-04-25T01:11:04;6.72;;;3.55;;
16824;SDS011;8529;48.108;-1.706;2023-04-25T01:13:31;8.20;;;3.83;;
16824;SDS011;8529;48.108;-1.706;2023-04-25T01:15:59;5.38;;;3.22;;
16824;SDS011;8529;48.108;-1.706;2023-04-25T01:18:28;8.98;;;3.40;;
16824;SDS011;8529;48.108;-1.706;2023-04-25T01:20:55;9.32;;;3.47;;
16824;SDS011;8529;48.108;-1.706;2023-04-25T01:23:25;7.95;;;3.40;;
16824;SDS011;8529;48.108;-1.706;2023-04-25T01:25:52;6.43;;;3.20;;
16824;SDS011;8529;48.108;-1.706;2023-04-25T01:28:19;10.13;;;3.78;;
16824;SDS011;8529;48.108;-1.706;2023-04-25T01:30:47;5.25;;;2.97;;
16824;SDS011;8529;48.108;-1.706;2023-04-25T01:33:14;8.45;;;3.90;;
16824;SDS011;8529;48.108;-1.706;2023-04-25T01:35:41;8.10;;;3.22;;
16824;SDS011;8529;48.108;-1.706;2023-04-25T01:38:08;7.70;;;3.80;;
16824;SDS011;8529;48.108;-1.706;2023-04-25T01:40:40;11.35;;;4.05;;
16824;SDS011;8529;48.108;-1.706;2023-04-25T01:43:07;8.68;;;3.72;;
16824;SDS011;8529;48.108;-1.706;2023-04-25T01:45:36;13.05;;;4.10;;
16824;SDS011;8529;48.108;-1.706;2023-04-25T01:48:05;5.97;;;3.38;;
16824;SDS011;8529;48.108;-1.706;2023-04-25T01:50:32;9.82;;;4.32;;
16824;SDS011;8529;48.108;-1.706;2023-04-25T01:52:59;6.53;;;3.15;;
16824;SDS011;8529;48.108;-1.706;2023-04-25T01:55:26;8.88;;;3.05;;
16824;SDS011;8529;48.108;-1.706;2023-04-25T01:57:55;7.53;;;3.55;;
16824;SDS011;8529;48.108;-1.706;2023-04-25T02:00:22;8.70;;;3.72;;
16824;SDS011;8529;48.108;-1.706;2023-04-25T02:02:49;8.93;;;3.30;;
16824;SDS011;8529;48.108;-1.706;2023-04-25T02:05:18;9.15;;;3.45;;
16824;SDS011;8529;48.108;-1.706;2023-04-25T02:07:45;8.90;;;3.75;;
16824;SDS011;8529;48.108;-1.706;2023-04-25T02:10:13;7.93;;;3.38;;
16824;SDS011;8529;48.108;-1.706;2023-04-25T02:12:39;7.75;;;3.35;;
16824;SDS011;8529;48.108;-1.706;2023-04-25T02:15:08;6.75;;;3.08;;
16824;SDS011;8529;48.108;-1.706;2023-04-25T02:17:36;6.68;;;3.08;;
16824;SDS011;8529;48.108;-1.706;2023-04-25T02:20:03;8.10;;;3.63;;
16824;SDS011;8529;48.108;-1.706;2023-04-25T02:22:30;7.25;;;3.42;;
16824;SDS011;8529;48.108;-1.706;2023-04-25T02:24:59;8.40;;;3.53;;
16824;SDS011;8529;48.108;-1.706;2023-04-25T02:27:25;9.35;;;3.55;;
16824;SDS011;8529;48.108;-1.706;2023-04-25T02:29:52;5.95;;;3.28;;
16824;SDS011;8529;48.108;-1.706;2023-04-25T02:32:20;14.13;;;4.05;;
16824;SDS011;8529;48.108;-1.706;2023-04-25T02:34:47;8.23;;;3.60;;
16824;SDS011;8529;48.108;-1.706;2023-04-25T02:37:14;7.15;;;3.13;;
16824;SDS011;8529;48.108;-1.706;2023-04-25T02:39:41;7.95;;;3.45;;
16824;SDS011;8529;48.108;-1.706;2023-04-25T02:42:08;8.57;;;3.88;;
16824;SDS011;8529;48.108;-1.706;2023-04-25T02:44:35;8.00;;;3.33;;
16824;SDS011;8529;48.108;-1.706;2023-04-25T02:47:02;7.43;;;3.60;;
16824;SDS011;8529;48.108;-1.706;2023-04-25T02:49:30;10.47;;;4.40;;
16824;SDS011;8529;48.108;-1.706;2023-04-25T02:51:57;7.65;;;3.35;;
16824;SDS011;8529;48.108;-1.706;2023-04-25T02:54:24;7.80;;;4.25;;
16824;SDS011;8529;48.108;-1.706;2023-04-25T02:56:50;11.60;;;4.53;;
16824;SDS011;8529;48.108;-1.706;2023-04-25T02:59:17;8.88;;;4.50;;
16824;SDS011;8529;48.108;-1.706;2023-04-25T03:01:44;5.00;;;3.40;;
16824;SDS011;8529;48.108;-1.706;2023-04-25T03:04:11;12.18;;;4.72;;
16824;SDS011;8529;48.108;-1.706;2023-04-25T03:06:39;7.78;;;3.70;;
16824;SDS011;8529;48.108;-1.706;2023-04-25T03:09:06;7.88;;;3.42;;
16824;SDS011;8529;48.108;-1.706;2023-04-25T03:11:33;8.27;;;3.80;;
16824;SDS011;8529;48.108;-1.706;2023-04-25T03:14:00;8.07;;;3.67;;
16824;SDS011;8529;48.108;-1.706;2023-04-25T03:16:27;6.13;;;3.42;;
16824;SDS011;8529;48.108;-1.706;2023-04-25T03:18:54;6.77;;;4.00;;
16824;SDS011;8529;48.108;-1.706;2023-04-25T03:21:20;6.55;;;3.40;;
16824;SDS011;8529;48.108;-1.706;2023-04-25T03:23:49;9.07;;;4.30;;
16824;SDS011;8529;48.108;-1.706;2023-04-25T03:26:15;5.53;;;3.40;;
16824;SDS011;8529;48.108;-1.706;2023-04-25T03:28:42;11.02;;;3.78;;
16824;SDS011;8529;48.108;-1.706;2023-04-25T03:31:09;6.60;;;3.97;;
16824;SDS011;8529;48.108;-1.706;2023-04-25T03:33:36;7.78;;;4.13;;
16824;SDS011;8529;48.108;-1.706;2023-04-25T03:36:03;8.10;;;3.90;;
16824;SDS011;8529;48.108;-1.706;2023-04-25T03:38:31;8.97;;;4.40;;
16824;SDS011;8529;48.108;-1.706;2023-04-25T03:41:00;7.27;;;3.87;;
16824;SDS011;8529;48.108;-1.706;2023-04-25T03:43:27;8.45;;;3.67;;
16824;SDS011;8529;48.108;-1.706;2023-04-25T03:45:54;8.55;;;4.03;;
16824;SDS011;8529;48.108;-1.706;2023-04-25T03:48:21;6.10;;;3.67;;
16824;SDS011;8529;48.108;-1.706;2023-04-25T03:50:49;7.88;;;4.00;;
16824;SDS011;8529;48.108;-1.706;2023-04-25T03:53:16;7.28;;;3.88;;
16824;SDS011;8529;48.108;-1.706;2023-04-25T03:55:43;5.90;;;3.47;;
16824;SDS011;8529;48.108;-1.706;2023-04-25T03:58:11;7.67;;;3.73;;
16824;SDS011;8529;48.108;-1.706;2023-04-25T04:00:38;9.23;;;4.22;;
16824;SDS011;8529;48.108;-1.706;2023-04-25T04:03:05;9.18;;;4.03;;
16824;SDS011;8529;48.108;-1.706;2023-04-25T04:05:32;10.40;;;4.17;;
16824;SDS011;8529;48.108;-1.706;2023-04-25T04:07:59;7.73;;;3.70;;
16824;SDS011;8529;48.108;-1.706;2023-04-25T04:10:26;9.37;;;4.20;;
16824;SDS011;8529;48.108;-1.706;2023-04-25T04:12:52;8.90;;;4.43;;
16824;SDS011;8529;48.108;-1.706;2023-04-25T04:15:21;8.18;;;3.60;;
16824;SDS011;8529;48.108;-1.706;2023-04-25T04:17:48;10.63;;;4.30;;
16824;SDS011;8529;48.108;-1.706;2023-04-25T04:20:15;7.95;;;3.90;;
16824;SDS011;8529;48.108;-1.706;2023-04-25T04:22:42;6.27;;;3.63;;
16824;SDS011;8529;48.108;-1.706;2023-04-25T04:25:09;6.47;;;3.42;;
16824;SDS011;8529;48.108;-1.706;2023-04-25T04:27:36;12.30;;;4.32;;
16824;SDS011;8529;48.108;-1.706;2023-04-25T04:30:04;8.17;;;3.90;;
16824;SDS011;8529;48.108;-1.706;2023-04-25T04:32:33;10.20;;;4.22;;
16824;SDS011;8529;48.108;-1.706;2023-04-25T04:35:01;10.13;;;3.72;;
16824;SDS011;8529;48.108;-1.706;2023-04-25T04:37:29;12.77;;;4.15;;
16824;SDS011;8529;48.108;-1.706;2023-04-25T04:39:56;7.40;;;4.93;;
16824;SDS011;8529;48.108;-1.706;2023-04-25T04:42:23;7.17;;;3.83;;
16824;SDS011;8529;48.108;-1.706;2023-04-25T04:44:50;10.43;;;4.00;;
16824;SDS011;8529;48.108;-1.706;2023-04-25T04:47:17;7.83;;;4.10;;
16824;SDS011;8529;48.108;-1.706;2023-04-25T04:49:46;8.63;;;4.80;;
16824;SDS011;8529;48.108;-1.706;2023-04-25T04:52:13;7.07;;;3.93;;
16824;SDS011;8529;48.108;-1.706;2023-04-25T04:54:40;9.13;;;4.37;;
16824;SDS011;8529;48.108;-1.706;2023-04-25T04:57:07;8.93;;;4.30;;
16824;SDS011;8529;48.108;-1.706;2023-04-25T04:59:34;9.03;;;4.60;;
16824;SDS011;8529;48.108;-1.706;2023-04-25T05:02:01;10.70;;;4.53;;
16824;SDS011;8529;48.108;-1.706;2023-04-25T05:04:28;8.73;;;4.50;;
16824;SDS011;8529;48.108;-1.706;2023-04-25T05:06:56;7.60;;;4.20;;
16824;SDS011;8529;48.108;-1.706;2023-04-25T05:09:23;6.70;;;3.93;;
16824;SDS011;8529;48.108;-1.706;2023-04-25T05:11:50;10.70;;;4.90;;
16824;SDS011;8529;48.108;-1.706;2023-04-25T05:14:17;7.75;;;4.47;;
16824;SDS011;8529;48.108;-1.706;2023-04-25T05:16:44;9.23;;;4.40;;
16824;SDS011;8529;48.108;-1.706;2023-04-25T05:19:11;8.13;;;4.47;;
16824;SDS011;8529;48.108;-1.706;2023-04-25T05:21:38;7.40;;;4.13;;
16824;SDS011;8529;48.108;-1.706;2023-04-25T05:24:06;8.00;;;4.38;;
16824;SDS011;8529;48.108;-1.706;2023-04-25T05:26:33;10.67;;;4.27;;
16824;SDS011;8529;48.108;-1.706;2023-04-25T05:29:00;19.17;;;5.40;;
16824;SDS011;8529;48.108;-1.706;2023-04-25T05:31:27;7.33;;;4.20;;
16824;SDS011;8529;48.108;-1.706;2023-04-25T05:33:54;7.60;;;4.43;;
16824;SDS011;8529;48.108;-1.706;2023-04-25T05:36:21;7.70;;;4.97;;
16824;SDS011;8529;48.108;-1.706;2023-04-25T05:38:48;8.10;;;4.13;;
16824;SDS011;8529;48.108;-1.706;2023-04-25T05:41:16;9.20;;;4.57;;
16824;SDS011;8529;48.108;-1.706;2023-04-25T05:43:43;9.02;;;4.65;;
16824;SDS011;8529;48.108;-1.706;2023-04-25T05:46:13;10.77;;;4.37;;
16824;SDS011;8529;48.108;-1.706;2023-04-25T05:48:40;7.90;;;4.53;;
16824;SDS011;8529;48.108;-1.706;2023-04-25T05:51:07;9.37;;;5.07;;
16824;SDS011;8529;48.108;-1.706;2023-04-25T05:53:34;8.53;;;4.50;;
16824;SDS011;8529;48.108;-1.706;2023-04-25T05:56:01;8.33;;;4.30;;
16824;SDS011;8529;48.108;-1.706;2023-04-25T05:58:29;11.27;;;4.53;;
16824;SDS011;8529;48.108;-1.706;2023-04-25T06:00:56;8.40;;;4.50;;
16824;SDS011;8529;48.108;-1.706;2023-04-25T06:03:23;7.93;;;3.80;;
16824;SDS011;8529;48.108;-1.706;2023-04-25T06:05:50;12.13;;;4.53;;
16824;SDS011;8529;48.108;-1.706;2023-04-25T06:08:17;14.13;;;4.97;;
16824;SDS011;8529;48.108;-1.706;2023-04-25T06:10:44;6.05;;;4.13;;
16824;SDS011;8529;48.108;-1.706;2023-04-25T06:13:10;9.98;;;4.18;;
16824;SDS011;8529;48.108;-1.706;2023-04-25T06:15:39;9.00;;;4.75;;
16824;SDS011;8529;48.108;-1.706;2023-04-25T06:18:06;9.97;;;4.53;;
16824;SDS011;8529;48.108;-1.706;2023-04-25T06:20:33;9.20;;;4.90;;
16824;SDS011;8529;48.108;-1.706;2023-04-25T06:23:00;7.87;;;4.53;;
16824;SDS011;8529;48.108;-1.706;2023-04-25T06:25:27;7.60;;;4.33;;
16824;SDS011;8529;48.108;-1.706;2023-04-25T06:27:54;10.53;;;4.67;;
16824;SDS011;8529;48.108;-1.706;2023-04-25T06:30:21;6.13;;;4.50;;
16824;SDS011;8529;48.108;-1.706;2023-04-25T06:32:52;8.93;;;5.00;;
16824;SDS011;8529;48.108;-1.706;2023-04-25T06:35:19;7.32;;;4.47;;
16824;SDS011;8529;48.108;-1.706;2023-04-25T06:37:46;10.55;;;4.40;;
16824;SDS011;8529;48.108;-1.706;2023-04-25T06:40:13;13.70;;;5.45;;
16824;SDS011;8529;48.108;-1.706;2023-04-25T06:42:42;8.53;;;5.00;;
16824;SDS011;8529;48.108;-1.706;2023-04-25T06:45:09;9.90;;;5.50;;
16824;SDS011;8529;48.108;-1.706;2023-04-25T06:47:36;7.60;;;5.20;;
16824;SDS011;8529;48.108;-1.706;2023-04-25T06:50:05;10.55;;;5.10;;
16824;SDS011;8529;48.108;-1.706;2023-04-25T06:52:33;11.38;;;4.85;;
16824;SDS011;8529;48.108;-1.706;2023-04-25T06:55:00;9.95;;;5.15;;
16824;SDS011;8529;48.108;-1.706;2023-04-25T06:57:27;13.10;;;4.88;;
16824;SDS011;8529;48.108;-1.706;2023-04-25T06:59:54;12.70;;;5.53;;
16824;SDS011;8529;48.108;-1.706;2023-04-25T07:02:21;9.50;;;5.28;;
16824;SDS011;8529;48.108;-1.706;2023-04-25T07:04:48;8.60;;;5.37;;
16824;SDS011;8529;48.108;-1.706;2023-04-25T07:07:16;9.75;;;5.00;;
16824;SDS011;8529;48.108;-1.706;2023-04-25T07:09:43;9.55;;;5.43;;
16824;SDS011;8529;48.108;-1.706;2023-04-25T07:12:10;12.73;;;5.47;;
16824;SDS011;8529;48.108;-1.706;2023-04-25T07:14:37;9.68;;;6.07;;
16824;SDS011;8529;48.108;-1.706;2023-04-25T07:17:04;30.00;;;13.10;;
16824;SDS011;8529;48.108;-1.706;2023-04-25T07:19:31;36.55;;;15.73;;
16824;SDS011;8529;48.108;-1.706;2023-04-25T07:21:58;42.75;;;16.75;;
16824;SDS011;8529;48.108;-1.706;2023-04-25T07:24:26;71.38;;;29.25;;
16824;SDS011;8529;48.108;-1.706;2023-04-25T07:26:53;55.58;;;19.20;;
16824;SDS011;8529;48.108;-1.706;2023-04-25T07:29:20;46.20;;;16.98;;
16824;SDS011;8529;48.108;-1.706;2023-04-25T07:31:47;15.45;;;7.70;;
16824;SDS011;8529;48.108;-1.706;2023-04-25T07:34:14;35.75;;;12.20;;
16824;SDS011;8529;48.108;-1.706;2023-04-25T07:36:41;19.35;;;8.15;;
16824;SDS011;8529;48.108;-1.706;2023-04-25T07:39:08;12.57;;;7.22;;
16824;SDS011;8529;48.108;-1.706;2023-04-25T07:41:37;31.67;;;12.75;;
16824;SDS011;8529;48.108;-1.706;2023-04-25T07:44:04;17.88;;;7.97;;
16824;SDS011;8529;48.108;-1.706;2023-04-25T07:46:31;14.48;;;7.20;;
16824;SDS011;8529;48.108;-1.706;2023-04-25T07:48:57;9.90;;;5.70;;
16824;SDS011;8529;48.108;-1.706;2023-04-25T07:51:24;24.90;;;11.57;;
16824;SDS011;8529;48.108;-1.706;2023-04-25T07:53:51;32.80;;;12.35;;
16824;SDS011;8529;48.108;-1.706;2023-04-25T07:56:18;35.80;;;10.25;;
16824;SDS011;8529;48.108;-1.706;2023-04-25T07:58:46;26.98;;;8.88;;
16824;SDS011;8529;48.108;-1.706;2023-04-25T08:01:13;21.92;;;8.43;;
16824;SDS011;8529;48.108;-1.706;2023-04-25T08:03:40;75.63;;;29.30;;
16824;SDS011;8529;48.108;-1.706;2023-04-25T08:06:07;61.00;;;24.08;;
16824;SDS011;8529;48.108;-1.706;2023-04-25T08:08:34;29.60;;;13.38;;
16824;SDS011;8529;48.108;-1.706;2023-04-25T08:11:01;24.23;;;11.35;;
16824;SDS011;8529;48.108;-1.706;2023-04-25T08:13:28;17.20;;;7.85;;
16824;SDS011;8529;48.108;-1.706;2023-04-25T08:15:56;17.70;;;8.25;;
16824;SDS011;8529;48.108;-1.706;2023-04-25T08:18:23;14.07;;;7.30;;
16824;SDS011;8529;48.108;-1.706;2023-04-25T08:20:50;16.70;;;8.15;;
16824;SDS011;8529;48.108;-1.706;2023-04-25T08:23:16;14.30;;;8.35;;
16824;SDS011;8529;48.108;-1.706;2023-04-25T08:25:43;29.70;;;15.63;;
16824;SDS011;8529;48.108;-1.706;2023-04-25T08:28:10;16.90;;;7.35;;
16824;SDS011;8529;48.108;-1.706;2023-04-25T08:30:37;32.03;;;12.75;;
16824;SDS011;8529;48.108;-1.706;2023-04-25T08:33:05;11.52;;;6.07;;
16824;SDS011;8529;48.108;-1.706;2023-04-25T08:35:32;10.18;;;5.28;;
16824;SDS011;8529;48.108;-1.706;2023-04-25T08:37:59;8.82;;;5.03;;
16824;SDS011;8529;48.108;-1.706;2023-04-25T08:40:27;5.95;;;3.88;;
16824;SDS011;8529;48.108;-1.706;2023-04-25T08:42:55;5.55;;;3.42;;
16824;SDS011;8529;48.108;-1.706;2023-04-25T08:45:24;8.88;;;3.53;;
16824;SDS011;8529;48.108;-1.706;2023-04-25T08:47:54;6.07;;;3.63;;
16824;SDS011;8529;48.108;-1.706;2023-04-25T08:50:24;7.53;;;4.15;;
16824;SDS011;8529;48.108;-1.706;2023-04-25T08:52:53;10.23;;;4.28;;
16824;SDS011;8529;48.108;-1.706;2023-04-25T08:55:21;10.05;;;4.78;;
16824;SDS011;8529;48.108;-1.706;2023-04-25T08:57:48;7.80;;;4.32;;
16824;SDS011;8529;48.108;-1.706;2023-04-25T09:00:16;9.38;;;5.00;;
16824;SDS011;8529;48.108;-1.706;2023-04-25T09:02:44;7.90;;;4.15;;
16824;SDS011;8529;48.108;-1.706;2023-04-25T09:05:12;7.13;;;3.75;;
16824;SDS011;8529;48.108;-1.706;2023-04-25T09:07:41;7.47;;;4.45;;
16824;SDS011;8529;48.108;-1.706;2023-04-25T09:10:08;12.15;;;5.05;;
16824;SDS011;8529;48.108;-1.706;2023-04-25T09:12:35;6.65;;;4.15;;
16824;SDS011;8529;48.108;-1.706;2023-04-25T09:15:03;8.70;;;4.70;;
16824;SDS011;8529;48.108;-1.706;2023-04-25T09:17:32;14.10;;;6.40;;
16824;SDS011;8529;48.108;-1.706;2023-04-25T09:20:05;13.68;;;7.43;;
16824;SDS011;8529;48.108;-1.706;2023-04-25T09:22:34;6.88;;;4.47;;
16824;SDS011;8529;48.108;-1.706;2023-04-25T09:25:03;9.43;;;5.60;;
16824;SDS011;8529;48.108;-1.706;2023-04-25T09:27:34;7.47;;;4.63;;
16824;SDS011;8529;48.108;-1.706;2023-04-25T09:30:01;9.77;;;5.15;;
16824;SDS011;8529;48.108;-1.706;2023-04-25T09:32:29;5.68;;;3.63;;
16824;SDS011;8529;48.108;-1.706;2023-04-25T09:34:57;6.72;;;3.83;;
16824;SDS011;8529;48.108;-1.706;2023-04-25T09:37:24;7.30;;;3.80;;
16824;SDS011;8529;48.108;-1.706;2023-04-25T09:39:53;7.18;;;3.85;;
16824;SDS011;8529;48.108;-1.706;2023-04-25T09:42:23;8.95;;;4.13;;
16824;SDS011;8529;48.108;-1.706;2023-04-25T09:44:52;6.57;;;3.97;;
16824;SDS011;8529;48.108;-1.706;2023-04-25T09:47:20;7.93;;;4.07;;
16824;SDS011;8529;48.108;-1.706;2023-04-25T09:49:50;5.72;;;3.47;;
16824;SDS011;8529;48.108;-1.706;2023-04-25T09:52:18;6.80;;;4.15;;
16824;SDS011;8529;48.108;-1.706;2023-04-25T09:54:46;6.40;;;3.47;;
16824;SDS011;8529;48.108;-1.706;2023-04-25T09:57:14;8.05;;;4.43;;
16824;SDS011;8529;48.108;-1.706;2023-04-25T09:59:46;5.82;;;3.63;;
16824;SDS011;8529;48.108;-1.706;2023-04-25T10:02:15;10.52;;;4.22;;
16824;SDS011;8529;48.108;-1.706;2023-04-25T10:04:44;5.60;;;3.50;;
16824;SDS011;8529;48.108;-1.706;2023-04-25T10:07:14;6.20;;;3.75;;
16824;SDS011;8529;48.108;-1.706;2023-04-25T10:09:41;9.02;;;3.92;;
16824;SDS011;8529;48.108;-1.706;2023-04-25T10:12:10;7.47;;;3.40;;
16824;SDS011;8529;48.108;-1.706;2023-04-25T10:14:38;5.40;;;3.50;;
16824;SDS011;8529;48.108;-1.706;2023-04-25T10:17:08;5.90;;;3.55;;
16824;SDS011;8529;48.108;-1.706;2023-04-25T10:19:36;4.43;;;3.55;;
16824;SDS011;8529;48.108;-1.706;2023-04-25T10:22:06;5.78;;;3.65;;
16824;SDS011;8529;48.108;-1.706;2023-04-25T10:24:34;6.35;;;4.43;;
16824;SDS011;8529;48.108;-1.706;2023-04-25T10:27:02;8.00;;;3.90;;
16824;SDS011;8529;48.108;-1.706;2023-04-25T10:29:29;6.80;;;3.83;;
16824;SDS011;8529;48.108;-1.706;2023-04-25T10:31:56;5.47;;;3.60;;
16824;SDS011;8529;48.108;-1.706;2023-04-25T10:34:37;7.70;;;4.32;;
16824;SDS011;8529;48.108;-1.706;2023-04-25T10:37:05;4.80;;;3.35;;
16824;SDS011;8529;48.108;-1.706;2023-04-25T10:39:35;9.05;;;4.30;;
16824;SDS011;8529;48.108;-1.706;2023-04-25T10:42:03;5.78;;;4.25;;
16824;SDS011;8529;48.108;-1.706;2023-04-25T10:44:31;6.20;;;3.38;;
16824;SDS011;8529;48.108;-1.706;2023-04-25T10:46:59;6.13;;;4.05;;
16824;SDS011;8529;48.108;-1.706;2023-04-25T10:49:30;5.68;;;3.05;;
16824;SDS011;8529;48.108;-1.706;2023-04-25T10:52:11;4.75;;;3.22;;
16824;SDS011;8529;48.108;-1.706;2023-04-25T10:54:45;5.53;;;3.28;;
16824;SDS011;8529;48.108;-1.706;2023-04-25T10:57:28;4.88;;;3.25;;
16824;SDS011;8529;48.108;-1.706;2023-04-25T11:00:00;6.75;;;3.53;;
16824;SDS011;8529;48.108;-1.706;2023-04-25T11:02:31;6.38;;;3.35;;
16824;SDS011;8529;48.108;-1.706;2023-04-25T11:05:04;3.97;;;3.20;;
16824;SDS011;8529;48.108;-1.706;2023-04-25T11:07:33;5.03;;;3.40;;
16824;SDS011;8529;48.108;-1.706;2023-04-25T11:10:04;4.55;;;3.15;;
16824;SDS011;8529;48.108;-1.706;2023-04-25T11:12:32;5.60;;;2.85;;
16824;SDS011;8529;48.108;-1.706;2023-04-25T11:15:00;4.78;;;3.00;;
16824;SDS011;8529;48.108;-1.706;2023-04-25T11:17:28;7.35;;;2.72;;
16824;SDS011;8529;48.108;-1.706;2023-04-25T11:19:55;6.78;;;4.05;;
16824;SDS011;8529;48.108;-1.706;2023-04-25T11:22:24;4.30;;;3.00;;
16824;SDS011;8529;48.108;-1.706;2023-04-25T11:24:52;3.30;;;2.78;;
16824;SDS011;8529;48.108;-1.706;2023-04-25T11:27:19;4.80;;;2.67;;
16824;SDS011;8529;48.108;-1.706;2023-04-25T11:29:49;6.70;;;2.95;;
16824;SDS011;8529;48.108;-1.706;2023-04-25T11:32:17;4.05;;;2.70;;
16824;SDS011;8529;48.108;-1.706;2023-04-25T11:34:44;4.28;;;2.50;;
16824;SDS011;8529;48.108;-1.706;2023-04-25T11:37:11;3.55;;;2.40;;
16824;SDS011;8529;48.108;-1.706;2023-04-25T11:39:42;5.28;;;2.80;;
16824;SDS011;8529;48.108;-1.706;2023-04-25T11:42:11;8.68;;;3.42;;
16824;SDS011;8529;48.108;-1.706;2023-04-25T11:44:38;6.90;;;3.25;;
16824;SDS011;8529;48.108;-1.706;2023-04-25T11:47:06;7.78;;;4.78;;
16824;SDS011;8529;48.108;-1.706;2023-04-25T11:49:32;7.18;;;5.30;;
16824;SDS011;8529;48.108;-1.706;2023-04-25T11:52:00;3.45;;;3.10;;
16824;SDS011;8529;48.108;-1.706;2023-04-25T11:54:27;5.57;;;3.33;;
16824;SDS011;8529;48.108;-1.706;2023-04-25T11:56:55;8.15;;;3.55;;
16824;SDS011;8529;48.108;-1.706;2023-04-25T11:59:23;4.30;;;3.42;;
16824;SDS011;8529;48.108;-1.706;2023-04-25T12:01:51;6.72;;;3.65;;
16824;SDS011;8529;48.108;-1.706;2023-04-25T12:04:19;7.10;;;3.85;;
16824;SDS011;8529;48.108;-1.706;2023-04-25T12:06:48;4.82;;;3.33;;
16824;SDS011;8529;48.108;-1.706;2023-04-25T12:09:16;5.13;;;3.30;;
16824;SDS011;8529;48.108;-1.706;2023-04-25T12:11:46;5.15;;;3.38;;
16824;SDS011;8529;48.108;-1.706;2023-04-25T12:14:21;5.75;;;3.83;;
16824;SDS011;8529;48.108;-1.706;2023-04-25T12:16:50;5.70;;;3.33;;
16824;SDS011;8529;48.108;-1.706;2023-04-25T12:19:18;5.35;;;2.72;;
16824;SDS011;8529;48.108;-1.706;2023-04-25T12:21:46;5.68;;;3.78;;
16824;SDS011;8529;48.108;-1.706;2023-04-25T12:24:14;4.57;;;3.50;;
16824;SDS011;8529;48.108;-1.706;2023-04-25T12:26:51;4.25;;;2.95;;
16824;SDS011;8529;48.108;-1.706;2023-04-25T12:29:21;6.88;;;3.47;;
16824;SDS011;8529;48.108;-1.706;2023-04-25T12:31:50;5.32;;;3.22;;
16824;SDS011;8529;48.108;-1.706;2023-04-25T12:34:18;9.50;;;4.60;;
16824;SDS011;8529;48.108;-1.706;2023-04-25T12:36:45;5.65;;;3.75;;
16824;SDS011;8529;48.108;-1.706;2023-04-25T12:39:14;9.38;;;5.40;;
16824;SDS011;8529;48.108;-1.706;2023-04-25T12:41:41;4.55;;;2.90;;
16824;SDS011;8529;48.108;-1.706;2023-04-25T12:44:09;5.22;;;3.92;;
16824;SDS011;8529;48.108;-1.706;2023-04-25T12:46:37;5.55;;;3.03;;
16824;SDS011;8529;48.108;-1.706;2023-04-25T12:49:04;5.20;;;3.60;;
16824;SDS011;8529;48.108;-1.706;2023-04-25T12:51:33;14.93;;;8.45;;
16824;SDS011;8529;48.108;-1.706;2023-04-25T12:54:00;7.32;;;3.47;;
16824;SDS011;8529;48.108;-1.706;2023-04-25T12:56:27;4.75;;;3.72;;
16824;SDS011;8529;48.108;-1.706;2023-04-25T12:58:54;5.45;;;3.65;;
16824;SDS011;8529;48.108;-1.706;2023-04-25T13:01:22;8.40;;;3.85;;
16824;SDS011;8529;48.108;-1.706;2023-04-25T13:03:51;6.15;;;4.18;;
16824;SDS011;8529;48.108;-1.706;2023-04-25T13:06:18;5.65;;;3.80;;
16824;SDS011;8529;48.108;-1.706;2023-04-25T13:08:46;6.35;;;4.30;;
16824;SDS011;8529;48.108;-1.706;2023-04-25T13:11:13;7.97;;;5.25;;
16824;SDS011;8529;48.108;-1.706;2023-04-25T13:13:40;6.53;;;3.88;;
16824;SDS011;8529;48.108;-1.706;2023-04-25T13:16:07;4.13;;;3.50;;
16824;SDS011;8529;48.108;-1.706;2023-04-25T13:18:35;7.50;;;4.43;;
16824;SDS011;8529;48.108;-1.706;2023-04-25T13:21:03;5.45;;;3.65;;
16824;SDS011;8529;48.108;-1.706;2023-04-25T13:23:30;6.80;;;4.00;;
16824;SDS011;8529;48.108;-1.706;2023-04-25T13:25:57;5.45;;;3.90;;
16824;SDS011;8529;48.108;-1.706;2023-04-25T13:28:26;6.53;;;3.67;;
16824;SDS011;8529;48.108;-1.706;2023-04-25T13:30:53;3.88;;;3.13;;
16824;SDS011;8529;48.108;-1.706;2023-04-25T13:33:20;7.05;;;4.05;;
16824;SDS011;8529;48.108;-1.706;2023-04-25T13:35:48;4.75;;;3.65;;
16824;SDS011;8529;48.108;-1.706;2023-04-25T13:38:20;6.45;;;3.90;;
16824;SDS011;8529;48.108;-1.706;2023-04-25T13:40:48;4.38;;;3.35;;
16824;SDS011;8529;48.108;-1.706;2023-04-25T13:43:17;9.43;;;3.40;;
16824;SDS011;8529;48.108;-1.706;2023-04-25T13:45:45;4.95;;;3.40;;
16824;SDS011;8529;48.108;-1.706;2023-04-25T13:48:12;6.15;;;3.42;;
16824;SDS011;8529;48.108;-1.706;2023-04-25T13:50:39;4.65;;;3.60;;
16824;SDS011;8529;48.108;-1.706;2023-04-25T13:53:05;5.90;;;3.15;;
16824;SDS011;8529;48.108;-1.706;2023-04-25T13:55:35;5.38;;;3.53;;
16824;SDS011;8529;48.108;-1.706;2023-04-25T13:58:02;6.55;;;2.92;;
16824;SDS011;8529;48.108;-1.706;2023-04-25T14:00:33;4.18;;;3.20;;
16824;SDS011;8529;48.108;-1.706;2023-04-25T14:03:00;5.97;;;3.78;;
16824;SDS011;8529;48.108;-1.706;2023-04-25T14:05:29;5.50;;;3.55;;
16824;SDS011;8529;48.108;-1.706;2023-04-25T14:07:57;4.18;;;3.10;;
16824;SDS011;8529;48.108;-1.706;2023-04-25T14:10:24;3.50;;;2.90;;
16824;SDS011;8529;48.108;-1.706;2023-04-25T14:12:53;5.45;;;3.35;;
16824;SDS011;8529;48.108;-1.706;2023-04-25T14:15:19;6.18;;;3.03;;
16824;SDS011;8529;48.108;-1.706;2023-04-25T14:17:46;3.85;;;3.05;;
16824;SDS011;8529;48.108;-1.706;2023-04-25T14:20:14;6.10;;;3.22;;
16824;SDS011;8529;48.108;-1.706;2023-04-25T14:22:45;4.72;;;3.38;;
16824;SDS011;8529;48.108;-1.706;2023-04-25T14:25:12;5.13;;;3.25;;
16824;SDS011;8529;48.108;-1.706;2023-04-25T14:27:39;3.83;;;2.92;;
16824;SDS011;8529;48.108;-1.706;2023-04-25T14:30:08;4.90;;;3.28;;
16824;SDS011;8529;48.108;-1.706;2023-04-25T14:32:36;6.13;;;3.50;;
16824;SDS011;8529;48.108;-1.706;2023-04-25T14:35:04;4.82;;;3.13;;
16824;SDS011;8529;48.108;-1.706;2023-04-25T14:37:32;5.10;;;2.78;;
16824;SDS011;8529;48.108;-1.706;2023-04-25T14:39:59;4.95;;;3.15;;
16824;SDS011;8529;48.108;-1.706;2023-04-25T14:42:26;5.55;;;2.83;;
16824;SDS011;8529;48.108;-1.706;2023-04-25T14:44:53;4.82;;;3.33;;
16824;SDS011;8529;48.108;-1.706;2023-04-25T14:47:21;4.53;;;2.90;;
16824;SDS011;8529;48.108;-1.706;2023-04-25T14:49:48;3.90;;;2.90;;